Terminal Aerodrome Forecast
Issued by NWS

Home | Current Version | Previous Version | Graphics & Text | Print | Product List | Glossary On
Versions: 1 2 3 4 5 6 7 8 9 10 11 12 13 14 15 16 17 18 19 20
000
FTUS43 KMPX 171506 AAB
TAFRNH
TAF AMD
KRNH 171506Z 1715/1812 33011KT P6SM SCT008 BKN016 OVC040
     FM172200 31014G21KT P6SM OVC025
     FM180200 31009KT P6SM SCT030
     FM180400 29005KT P6SM SKC=

USA.gov is the U.S. government's official web portal to all federal, state and local government web resources and services.